createdAt,value
2018-05-31T00:01:47.813Z,75.6
2018-05-31T00:06:47.894Z,75.4
2018-05-31T00:11:47.921Z,75.8
2018-05-31T00:16:47.961Z,76
2018-05-31T00:21:48.641Z,76.2
2018-05-31T00:26:51.380Z,76.8
2018-05-31T00:31:49.670Z,78.3
2018-05-31T00:37:02.129Z,77.8
2018-05-31T00:42:01.992Z,78.6
2018-05-31T00:47:02.401Z,78.8
2018-05-31T00:52:03.075Z,80.7
2018-05-31T00:57:01.996Z,80
2018-05-31T01:02:02.042Z,81.8
2018-05-31T01:07:01.918Z,82.7
2018-05-31T01:12:03.078Z,82.1
2018-05-31T01:17:02.552Z,81.3
2018-05-31T01:22:15.190Z,83
2018-05-31T01:27:15.106Z,83.1
2018-05-31T01:32:14.888Z,82.8
2018-05-31T01:37:15.032Z,82.7
2018-05-31T01:42:15.131Z,81.9
2018-05-31T01:47:14.928Z,82
2018-05-31T01:52:15.073Z,82.5
2018-05-31T01:57:17.518Z,82.2
2018-05-31T02:02:18.021Z,83.2
2018-05-31T02:07:30.082Z,83.3
2018-05-31T02:12:31.071Z,82.9
2018-05-31T02:17:30.155Z,83.8
2018-05-31T02:22:30.193Z,82.6
2018-05-31T02:27:29.808Z,83.6
2018-05-31T02:32:29.795Z,85
2018-05-31T02:37:29.786Z,83.7
2018-05-31T02:42:30.628Z,84.3
2018-05-31T02:47:30.358Z,85
2018-05-31T02:52:43.181Z,83.4
2018-05-31T02:57:42.829Z,84.5
2018-05-31T03:02:44.065Z,83.8
2018-05-31T03:07:44.210Z,83.7
2018-05-31T03:12:44.285Z,83.3
2018-05-31T03:17:44.213Z,84.5
2018-05-31T03:22:44.272Z,85.3
2018-05-31T03:27:44.690Z,85.9
2018-05-31T03:32:44.328Z,85
2018-05-31T03:37:56.840Z,84.3
2018-05-31T03:42:56.779Z,84.5
2018-05-31T03:47:57.274Z,83.8
2018-05-31T03:52:56.738Z,84.2
2018-05-31T03:57:56.789Z,85
2018-05-31T04:02:56.658Z,85
2018-05-31T04:07:56.595Z,86.1
2018-05-31T04:12:59.306Z,84
2018-05-31T04:17:59.119Z,83.3
2018-05-31T04:23:09.639Z,82.9
2018-05-31T04:28:09.593Z,82.6
2018-05-31T04:33:09.510Z,80.6
2018-05-31T04:38:09.370Z,80.5
2018-05-31T04:43:09.378Z,78.9
2018-05-31T04:48:09.377Z,77.9
2018-05-31T04:53:09.825Z,79
2018-05-31T04:58:12.051Z,76.9
2018-05-31T05:03:11.903Z,76.8
2018-05-31T05:08:24.733Z,75.9
2018-05-31T05:13:24.664Z,74.9
2018-05-31T05:18:24.563Z,75.3
2018-05-31T05:23:24.610Z,74.7
2018-05-31T05:28:24.633Z,74
2018-05-31T05:33:24.461Z,73
2018-05-31T05:38:24.597Z,73.1
2018-05-31T05:43:27.117Z,72
2018-05-31T05:48:26.759Z,71.5
2018-05-31T05:53:39.347Z,70.9
2018-05-31T05:58:39.084Z,69.3
2018-05-31T06:03:39.090Z,68.7
2018-05-31T06:08:39.707Z,67.6
2018-05-31T06:13:39.097Z,66.9
2018-05-31T06:18:39.110Z,65.4
2018-05-31T06:23:39.093Z,65.8
2018-05-31T06:28:39.140Z,64.7
2018-05-31T06:33:39.314Z,65.2
2018-05-31T06:38:50.852Z,62.8
2018-05-31T06:43:50.532Z,63.4
2018-05-31T06:48:52.035Z,61.9
2018-05-31T06:53:50.583Z,61.6
2018-05-31T06:58:50.566Z,61.7
2018-05-31T07:03:50.936Z,60.7
2018-05-31T07:08:50.728Z,60.1
2018-05-31T07:13:55.813Z,58.9
2018-05-31T07:18:55.527Z,58.1
2018-05-31T07:24:07.724Z,57.6
2018-05-31T07:29:07.465Z,56.5
2018-05-31T07:34:07.609Z,56.1
2018-05-31T07:39:07.596Z,54.5
2018-05-31T07:44:07.579Z,55.4
2018-05-31T07:49:07.602Z,55.6
2018-05-31T07:54:08.871Z,56
2018-05-31T07:59:08.069Z,55.6
2018-05-31T08:04:08.012Z,52.6
2018-05-31T08:09:22.989Z,53.7
2018-05-31T08:14:22.773Z,52.7
2018-05-31T08:19:22.589Z,52.8
2018-05-31T08:24:22.662Z,52.8
2018-05-31T08:29:22.619Z,51.7
2018-05-31T08:34:22.597Z,51.2
2018-05-31T08:39:22.746Z,51.6
2018-05-31T08:44:25.922Z,51.2
2018-05-31T08:49:25.599Z,50.3
2018-05-31T08:54:35.743Z,49.7
2018-05-31T08:59:35.400Z,49.1
2018-05-31T09:04:35.436Z,48.7
2018-05-31T09:09:35.404Z,47.4
2018-05-31T09:14:38.438Z,46.8
2018-05-31T09:19:35.435Z,45.2
2018-05-31T09:24:36.584Z,44.3
2018-05-31T09:29:40.446Z,46.4
2018-05-31T09:34:39.861Z,44.3
2018-05-31T09:39:52.340Z,44.8
2018-05-31T09:44:52.045Z,43.6
2018-05-31T09:49:52.146Z,43
2018-05-31T09:54:52.173Z,43.8
2018-05-31T09:59:52.196Z,44.6
2018-05-31T10:04:52.276Z,43.3
2018-05-31T10:09:52.227Z,43
2018-05-31T10:14:54.397Z,43.8
2018-05-31T10:19:54.040Z,42.4
2018-05-31T10:25:11.753Z,42.7
2018-05-31T10:30:11.858Z,42.8
2018-05-31T10:35:11.447Z,42.2
2018-05-31T10:40:11.472Z,41.5
2018-05-31T10:45:11.654Z,39.7
2018-05-31T10:50:11.469Z,40.2
2018-05-31T10:55:11.607Z,40.6
2018-05-31T11:00:15.415Z,39.4
2018-05-31T11:05:15.277Z,39
2018-05-31T11:10:25.970Z,39.4
2018-05-31T11:15:25.892Z,39.3
2018-05-31T11:20:25.684Z,38.8
2018-05-31T11:25:25.698Z,38.4
2018-05-31T11:30:25.650Z,39.3
2018-05-31T11:35:25.697Z,38.6
2018-05-31T11:40:27.419Z,38.3
2018-05-31T11:45:27.382Z,38.6
2018-05-31T11:50:27.157Z,37.9
2018-05-31T11:55:40.021Z,37.1
2018-05-31T12:00:39.687Z,37.8
2018-05-31T12:05:39.971Z,37.3
2018-05-31T12:10:39.707Z,35.1
2018-05-31T12:15:39.910Z,35
2018-05-31T12:20:40.072Z,36.2
2018-05-31T12:25:40.184Z,35.5
2018-05-31T12:30:40.061Z,33.8
2018-05-31T12:35:40.015Z,34.3
2018-05-31T12:40:51.982Z,35.7
2018-05-31T12:45:51.727Z,37.2
2018-05-31T12:50:51.727Z,36.7
2018-05-31T12:55:51.735Z,35.1
2018-05-31T13:00:51.890Z,34.4
2018-05-31T13:05:52.091Z,37.4
2018-05-31T13:10:51.774Z,37.4
2018-05-31T13:15:51.769Z,36
2018-05-31T13:20:51.950Z,38.4
2018-05-31T13:25:51.694Z,38.8
2018-05-31T13:30:51.793Z,38.3
2018-05-31T13:35:51.740Z,39.1
2018-05-31T13:40:53.134Z,39.5
2018-05-31T13:45:52.810Z,39.3
2018-05-31T13:51:05.591Z,38.6
2018-05-31T13:56:05.313Z,39.1
2018-05-31T14:01:05.533Z,38.9
2018-05-31T14:06:05.634Z,38.6
2018-05-31T14:11:05.305Z,39.6
2018-05-31T14:16:05.304Z,41.1
2018-05-31T14:21:05.313Z,40.5
2018-05-31T14:26:05.525Z,42.1
2018-05-31T14:31:05.337Z,42.6
2018-05-31T14:36:05.474Z,42.2
2018-05-31T14:41:05.446Z,42.1
2018-05-31T14:46:05.546Z,41.5
2018-05-31T14:51:06.194Z,41
2018-05-31T14:56:05.928Z,41
2018-05-31T15:01:17.946Z,42
2018-05-31T15:06:17.716Z,43.1
2018-05-31T15:11:19.169Z,43.5
2018-05-31T15:16:17.788Z,44.6
2018-05-31T15:21:17.881Z,43.7
2018-05-31T15:26:17.901Z,43.3
2018-05-31T15:31:17.808Z,45.1
2018-05-31T15:36:17.700Z,45.2
2018-05-31T15:41:17.713Z,45.6
2018-05-31T15:46:29.915Z,46
2018-05-31T15:51:29.695Z,46.3
2018-05-31T15:56:29.717Z,45.8
2018-05-31T16:01:29.633Z,46
2018-05-31T16:06:29.621Z,47.5
2018-05-31T16:11:29.899Z,48.4
2018-05-31T16:16:29.648Z,49.3
2018-05-31T16:21:32.136Z,49.5
2018-05-31T16:26:31.859Z,50.3
2018-05-31T16:31:42.576Z,48.8
2018-05-31T16:36:42.438Z,47.4
2018-05-31T16:41:42.460Z,46.9
2018-05-31T16:46:42.520Z,46.3
2018-05-31T16:51:42.434Z,46.9
2018-05-31T16:56:42.417Z,46.7
2018-05-31T17:01:42.521Z,46.4
2018-05-31T17:06:43.078Z,46.9
2018-05-31T17:11:42.981Z,46.7
2018-05-31T17:16:55.307Z,47.3
2018-05-31T17:21:55.255Z,46.8
2018-05-31T17:26:55.186Z,46
2018-05-31T17:31:55.210Z,44.1
2018-05-31T17:36:55.140Z,43.6
2018-05-31T17:41:55.178Z,43
2018-05-31T17:46:55.040Z,43
2018-05-31T17:51:55.049Z,44.1
2018-05-31T17:56:55.055Z,44.1
2018-05-31T18:02:10.050Z,45.2
2018-05-31T18:07:10.004Z,46.8
2018-05-31T18:12:09.779Z,46.6
2018-05-31T18:17:09.904Z,46.8
2018-05-31T18:22:09.771Z,47.4
2018-05-31T18:27:09.917Z,47.1
2018-05-31T18:32:09.943Z,47.5
2018-05-31T18:37:10.357Z,47
2018-05-31T18:42:10.093Z,48.2
2018-05-31T18:47:22.925Z,49.9
2018-05-31T18:52:22.923Z,50.1
2018-05-31T18:57:22.870Z,51.7
2018-05-31T19:02:22.655Z,50.4
2018-05-31T19:07:23.172Z,49.8
2018-05-31T19:12:22.640Z,47.8
2018-05-31T19:17:22.664Z,47.8
2018-05-31T19:22:22.790Z,49.1
2018-05-31T19:27:22.702Z,49.2
2018-05-31T19:32:22.935Z,53.5
2018-05-31T19:37:22.913Z,51.5
2018-05-31T19:42:22.864Z,51
2018-05-31T19:47:24.550Z,51.2
2018-05-31T19:52:24.284Z,51.1
2018-05-31T19:57:38.310Z,52.9
2018-05-31T20:02:37.866Z,52.1
2018-05-31T20:07:38.380Z,51.6
2018-05-31T20:12:38.206Z,51.5
2018-05-31T20:17:38.155Z,52.5
2018-05-31T20:22:37.951Z,53
2018-05-31T20:27:37.937Z,52.5
2018-05-31T20:32:38.614Z,52.8
2018-05-31T20:37:38.457Z,53.9
2018-05-31T20:42:51.602Z,53.5
2018-05-31T20:47:51.455Z,53.7
2018-05-31T20:52:51.459Z,55.1
2018-05-31T20:57:51.508Z,55.3
2018-05-31T21:02:51.335Z,55.3
2018-05-31T21:07:51.343Z,55.3
2018-05-31T21:12:51.493Z,56.4
2018-05-31T21:17:51.550Z,56.4
2018-05-31T21:22:51.641Z,56.8
2018-05-31T21:27:51.300Z,57.9
2018-05-31T21:32:51.358Z,58
2018-05-31T21:37:51.604Z,57.6
2018-05-31T21:42:53.413Z,58.3
2018-05-31T21:47:53.081Z,58.1
2018-05-31T21:53:05.474Z,57.7
2018-05-31T21:58:05.617Z,57.7
2018-05-31T22:03:05.462Z,59.1
2018-05-31T22:08:05.400Z,59.1
2018-05-31T22:13:05.259Z,60.5
2018-05-31T22:18:05.376Z,59.5
2018-05-31T22:23:05.216Z,59.8
2018-05-31T22:28:08.326Z,61.3
2018-05-31T22:33:08.186Z,60.2
2018-05-31T22:38:18.529Z,61.2
2018-05-31T22:43:18.297Z,62.3
2018-05-31T22:48:18.239Z,62.9
2018-05-31T22:53:18.442Z,61.6
2018-05-31T22:58:18.448Z,63.8
2018-05-31T23:03:18.366Z,63.9
2018-05-31T23:08:18.271Z,65.4
2018-05-31T23:13:18.620Z,64.5
2018-05-31T23:18:18.585Z,64.1
2018-05-31T23:23:30.901Z,66.7
2018-05-31T23:28:30.629Z,67.1
2018-05-31T23:33:30.865Z,66.4
2018-05-31T23:38:30.619Z,67.3
2018-05-31T23:43:30.853Z,68.1
2018-05-31T23:48:30.876Z,69.5
2018-05-31T23:53:30.774Z,69.3
2018-05-31T23:58:31.013Z,69.3
